Bookmark and Share
Track history (hours):
 

Windleblo

More information available from US FCC via Universal Licensing System and Coast Guard Vessel Documentation Center.

Last reported at 2014-Feb-14 05:25 UTC. Time now 2014-Apr-19 05:14 UTC.
Position N 18°10' W 063°28'.
Warning: this ship's position is months out of date.

Type: Pleasure craft. MMSI: 367422620.

NotesDate/timePositionNaut miles runAvg speedWind from/ knotsBaromVisibWave heightAir tempDewpointWater temp
2014-Feb-14 05:25N 18°10' W 063°28'5 5.7
2014-Feb-14 04:28N 18°08' W 063°23'5 5.6
2014-Feb-14 03:33N 18°06' W 063°18'5 5.4
2014-Feb-14 02:33N 18°04' W 063°13'6 5.9
2014-Feb-14 01:33N 18°01' W 063°07'2 0.1
2014-Feb-13 14:33N 18°02' W 063°06'0 0.0
2014-Feb-12 21:31N 18°02' W 063°05'0 0.0
2014-Feb-11 11:31N 18°02' W 063°06'0 0.0
2014-Feb-10 21:14N 18°02' W 063°06'0 0.0
2014-Feb-09 21:14N 18°02' W 063°06'16 0.6
2014-Feb-08 17:33N 17°53' W 062°52'4 3.9
2014-Feb-08 16:33N 17°51' W 062°55'6 6.0
2014-Feb-08 15:33N 17°56' W 062°58'5 5.0
2014-Feb-08 14:33N 17°60' W 063°01'3 3.1
2014-Feb-08 13:33N 17°57' W 063°03'5 5.1
2014-Feb-08 12:31N 18°02' W 063°06'0 0.0
2014-Feb-07 12:15N 18°02' W 063°06'0 0.0
2014-Feb-07 11:33N 18°02' W 063°06'0 0.0
2014-Feb-05 21:29N 18°02' W 063°06'0 0.2
2014-Feb-05 19:21N 18°02' W 063°06'3 3.7
2014-Feb-05 18:33N 18°01' W 063°03'0 0.0
2014-Feb-04 11:05N 18°01' W 063°03'2 3.6
2014-Feb-04 10:33N 17°59' W 063°02'7 7.2
2014-Feb-04 09:33N 17°55' W 062°56'7 6.7
2014-Feb-04 08:33N 17°50' W 062°51'7 7.3
2014-Feb-04 07:33N 17°45' W 062°45'8 7.5
2014-Feb-04 06:32N 17°40' W 062°40'  

Dump ship's entire track history

sailing weather and tide predictions

Windleblo — WDE9900 — position and weather